createdAt,value
2023-01-07T00:01:09.744Z,10.68
2023-01-07T00:03:38.838Z,11.80
2023-01-07T00:06:08.729Z,11.77
2023-01-07T00:08:38.590Z,10.10
2023-01-07T00:11:08.749Z,10.80
2023-01-07T00:13:38.668Z,10.50
2023-01-07T00:16:09.600Z,9.70
2023-01-07T00:18:38.422Z,8.52
2023-01-07T00:21:09.151Z,12.57
2023-01-07T00:23:37.878Z,12.95
2023-01-07T00:26:09.371Z,10.52
2023-01-07T00:28:41.470Z,16.90
2023-01-07T00:31:13.001Z,13.00
2023-01-07T00:33:51.672Z,10.25
2023-01-07T00:36:20.127Z,10.52
2023-01-07T00:38:48.863Z,12.57
2023-01-07T00:41:17.157Z,12.15
2023-01-07T00:43:48.483Z,12.35
2023-01-07T00:46:17.390Z,13.20
2023-01-07T00:48:45.857Z,10.85
2023-01-07T00:51:16.902Z,10.40
2023-01-07T00:53:45.398Z,12.88
2023-01-07T00:56:15.667Z,11.18
2023-01-07T00:58:44.927Z,9.43
2023-01-07T01:01:14.713Z,12.95
2023-01-07T01:03:43.772Z,8.90
2023-01-07T01:06:15.575Z,9.50
2023-01-07T01:08:46.116Z,10.80
2023-01-07T01:11:16.964Z,11.07
2023-01-07T01:13:47.176Z,8.18
2023-01-07T01:16:18.282Z,10.82
2023-01-07T01:18:47.408Z,10.90
2023-01-07T01:21:17.284Z,8.90
2023-01-07T01:23:45.834Z,9.35
2023-01-07T01:26:15.758Z,8.88
2023-01-07T01:28:44.656Z,11.07
2023-01-07T01:31:13.287Z,10.25
2023-01-07T01:33:43.003Z,10.00
2023-01-07T01:36:13.381Z,8.45
2023-01-07T01:38:43.958Z,10.48
2023-01-07T01:41:13.003Z,15.50
2023-01-07T01:43:42.947Z,10.73
2023-01-07T01:46:14.688Z,10.07
2023-01-07T01:48:47.980Z,10.85
2023-01-07T01:51:17.864Z,10.02
2023-01-07T01:53:46.277Z,10.45
2023-01-07T01:56:17.562Z,11.38
2023-01-07T01:58:49.240Z,11.50
2023-01-07T02:01:17.750Z,10.90
2023-01-07T02:03:47.915Z,13.30
2023-01-07T02:06:22.014Z,14.20
2023-01-07T02:08:53.218Z,11.00
2023-01-07T02:11:29.022Z,13.10
2023-01-07T02:14:08.529Z,11.90
2023-01-07T02:16:42.928Z,13.60
2023-01-07T02:19:27.969Z,13.57
2023-01-07T02:22:00.955Z,16.35
2023-01-07T02:24:54.974Z,16.33
2023-01-07T02:27:31.439Z,12.40
2023-01-07T02:30:30.285Z,17.30
2023-01-07T02:33:09.884Z,14.88
2023-01-07T02:35:49.467Z,14.57
2023-01-07T02:38:24.760Z,15.23
2023-01-07T02:40:59.135Z,14.07
2023-01-07T02:43:34.266Z,16.05
2023-01-07T02:46:06.417Z,17.48
2023-01-07T02:48:36.736Z,18.67
2023-01-07T02:51:05.049Z,19.42
2023-01-07T02:53:33.298Z,20.00
2023-01-07T02:56:15.371Z,18.52
2023-01-07T02:59:05.789Z,20.02
2023-01-07T03:01:43.641Z,19.40
2023-01-07T03:04:24.280Z,20.30
2023-01-07T03:07:00.236Z,22.48
2023-01-07T03:09:33.552Z,20.30
2023-01-07T03:12:14.609Z,22.13
2023-01-07T03:14:47.400Z,21.55
2023-01-07T03:17:18.957Z,20.05
2023-01-07T03:19:52.245Z,22.23
2023-01-07T03:22:22.410Z,22.80
2023-01-07T03:24:52.629Z,22.30
2023-01-07T03:27:23.009Z,23.77
2023-01-07T03:29:54.180Z,27.10
2023-01-07T03:32:27.130Z,23.20
2023-01-07T03:34:57.266Z,24.38
2023-01-07T03:37:27.014Z,23.55
2023-01-07T03:39:56.430Z,21.90
2023-01-07T03:42:41.123Z,26.50
2023-01-07T03:45:11.729Z,23.05
2023-01-07T03:47:42.249Z,25.55
2023-01-07T03:50:12.937Z,22.17
2023-01-07T03:52:41.097Z,25.83
2023-01-07T03:55:09.991Z,25.27
2023-01-07T03:57:38.570Z,22.75
2023-01-07T04:00:09.215Z,30.85
2023-01-07T04:02:37.356Z,25.85
2023-01-07T04:05:06.090Z,31.98
2023-01-07T04:07:36.573Z,32.85
2023-01-07T04:10:05.277Z,34.15
2023-01-07T04:12:33.670Z,29.05
2023-01-07T04:15:02.704Z,31.20
2023-01-07T04:17:32.620Z,28.05
2023-01-07T04:20:01.626Z,31.25
2023-01-07T04:22:30.273Z,27.95
2023-01-07T04:25:00.004Z,31.75
2023-01-07T04:27:29.958Z,25.65
2023-01-07T04:29:57.982Z,29.45
2023-01-07T04:32:26.125Z,29.15
2023-01-07T04:34:55.501Z,25.98
2023-01-07T04:37:23.717Z,29.08
2023-01-07T04:39:52.041Z,28.17
2023-01-07T04:42:22.727Z,28.92
2023-01-07T04:44:53.347Z,27.90
2023-01-07T04:47:21.453Z,27.80
2023-01-07T04:49:51.118Z,27.80
2023-01-07T04:52:19.530Z,30.85
2023-01-07T04:54:47.842Z,28.73
2023-01-07T04:57:16.438Z,28.58
2023-01-07T04:59:45.883Z,29.58
2023-01-07T05:02:14.165Z,33.00
2023-01-07T05:04:44.646Z,28.23
2023-01-07T05:07:12.725Z,27.75
2023-01-07T05:09:40.948Z,28.52
2023-01-07T05:12:09.091Z,30.60
2023-01-07T05:14:38.472Z,24.42
2023-01-07T05:17:09.486Z,29.95
2023-01-07T05:19:39.704Z,28.98
2023-01-07T05:22:08.852Z,27.73
2023-01-07T05:24:37.547Z,28.75
2023-01-07T05:27:05.858Z,25.85
2023-01-07T05:29:33.815Z,24.42
2023-01-07T05:32:02.592Z,25.20
2023-01-07T05:34:32.718Z,25.38
2023-01-07T05:37:01.808Z,29.70
2023-01-07T05:39:30.430Z,29.30
2023-01-07T05:41:58.974Z,24.83
2023-01-07T05:44:33.026Z,23.63
2023-01-07T05:47:02.321Z,25.13
2023-01-07T05:49:32.549Z,25.05
2023-01-07T05:52:01.937Z,27.70
2023-01-07T05:54:30.795Z,25.05
2023-01-07T05:57:01.290Z,23.40
2023-01-07T05:59:30.429Z,24.13
2023-01-07T06:01:58.459Z,25.90
2023-01-07T06:04:27.039Z,26.02
2023-01-07T06:06:58.214Z,23.10
2023-01-07T06:09:29.785Z,25.42
2023-01-07T06:11:58.483Z,22.77
2023-01-07T06:14:27.215Z,26.65
2023-01-07T06:16:56.546Z,24.98
2023-01-07T06:19:26.470Z,25.63
2023-01-07T06:21:55.969Z,25.25
2023-01-07T06:24:24.224Z,24.33
2023-01-07T06:26:52.296Z,24.88
2023-01-07T06:29:21.545Z,27.38
2023-01-07T06:31:50.973Z,27.33
2023-01-07T06:34:23.390Z,23.30
2023-01-07T06:36:51.580Z,28.98
2023-01-07T06:39:21.166Z,25.08
2023-01-07T06:41:49.720Z,30.35
2023-01-07T06:44:18.061Z,22.40
2023-01-07T06:46:46.235Z,25.45
2023-01-07T06:49:14.665Z,23.40
2023-01-07T06:51:42.691Z,22.23
2023-01-07T06:54:11.951Z,23.75
2023-01-07T06:56:41.584Z,27.38
2023-01-07T06:59:10.836Z,29.63
2023-01-07T07:01:38.983Z,22.55
2023-01-07T07:04:07.248Z,24.65
2023-01-07T07:06:35.485Z,22.77
2023-01-07T07:09:03.816Z,24.10
2023-01-07T07:11:32.032Z,24.27
2023-01-07T07:14:01.651Z,24.10
2023-01-07T07:16:32.586Z,22.40
2023-01-07T07:19:01.428Z,21.20
2023-01-07T07:21:29.672Z,21.58
2023-01-07T07:23:57.752Z,23.05
2023-01-07T07:26:27.370Z,21.40
2023-01-07T07:28:55.840Z,24.67
2023-01-07T07:31:25.595Z,21.48
2023-01-07T07:33:55.300Z,24.80
2023-01-07T07:36:23.844Z,23.10
2023-01-07T07:38:51.909Z,25.38
2023-01-07T07:41:20.246Z,21.75
2023-01-07T07:43:49.201Z,25.52
2023-01-07T07:46:17.265Z,23.42
2023-01-07T07:48:50.792Z,20.70
2023-01-07T07:51:19.787Z,21.42
2023-01-07T07:53:50.983Z,17.23
2023-01-07T07:56:19.685Z,17.77
2023-01-07T07:58:48.839Z,16.50
2023-01-07T08:01:17.463Z,13.85
2023-01-07T08:03:49.504Z,11.05
2023-01-07T08:06:17.969Z,12.85
2023-01-07T08:08:47.088Z,10.88
2023-01-07T08:11:21.215Z,12.43
2023-01-07T08:13:52.516Z,10.82
2023-01-07T08:16:22.700Z,10.63
2023-01-07T08:18:53.821Z,12.68
2023-01-07T08:21:24.060Z,9.35
2023-01-07T08:23:52.124Z,12.18
2023-01-07T08:26:21.633Z,10.00
2023-01-07T08:28:55.312Z,10.90
2023-01-07T08:31:25.675Z,9.18
2023-01-07T08:33:59.896Z,8.80
2023-01-07T08:36:28.730Z,12.80
2023-01-07T08:38:57.330Z,10.10
2023-01-07T08:41:29.612Z,9.45
2023-01-07T08:43:57.963Z,10.27
2023-01-07T08:46:26.271Z,8.98
2023-01-07T08:48:55.774Z,12.02
2023-01-07T08:51:23.760Z,7.95
2023-01-07T08:53:52.291Z,9.85
2023-01-07T08:56:20.538Z,10.23
2023-01-07T08:58:49.023Z,9.68
2023-01-07T09:01:17.176Z,9.48
2023-01-07T09:03:46.204Z,11.57
2023-01-07T09:06:15.699Z,9.38
2023-01-07T09:08:43.982Z,7.78
2023-01-07T09:11:11.998Z,8.70
2023-01-07T09:13:47.560Z,9.60
2023-01-07T09:16:23.881Z,10.43
2023-01-07T09:18:52.256Z,8.43
2023-01-07T09:21:24.654Z,11.05
2023-01-07T09:26:21.414Z,10.23
2023-01-07T09:28:51.023Z,9.38
2023-01-07T09:31:19.679Z,7.82
2023-01-07T09:33:47.850Z,10.35
2023-01-07T09:36:16.957Z,8.18
2023-01-07T09:38:49.143Z,9.05
2023-01-07T09:41:23.828Z,9.05
2023-01-07T09:44:00.428Z,7.80
2023-01-07T09:46:30.460Z,8.70
2023-01-07T09:49:02.351Z,6.78
2023-01-07T09:51:43.803Z,6.53
2023-01-07T09:54:23.492Z,6.53
2023-01-07T09:56:51.614Z,8.40
2023-01-07T09:59:21.567Z,7.25
2023-01-07T10:01:55.214Z,6.45
2023-01-07T10:04:30.170Z,6.40
2023-01-07T10:07:04.448Z,7.82
2023-01-07T10:09:51.367Z,5.90
2023-01-07T10:12:26.500Z,8.98
2023-01-07T10:15:16.661Z,7.93
2023-01-07T10:18:02.161Z,5.18
2023-01-07T10:20:37.903Z,8.73
2023-01-07T10:23:09.869Z,9.00
2023-01-07T10:25:44.229Z,7.78
2023-01-07T10:28:16.830Z,8.55
2023-01-07T10:30:46.455Z,4.30
2023-01-07T10:33:25.014Z,5.00
2023-01-07T10:36:01.376Z,4.82
2023-01-07T10:38:31.127Z,5.30
2023-01-07T10:41:08.337Z,4.53
2023-01-07T10:43:52.980Z,5.25
2023-01-07T10:46:34.589Z,4.47
2023-01-07T10:49:13.032Z,4.17
2023-01-07T10:51:52.224Z,6.10
2023-01-07T10:54:35.876Z,5.30
2023-01-07T10:57:08.266Z,6.28
2023-01-07T11:02:05.839Z,5.28
2023-01-07T11:04:34.131Z,3.72
2023-01-07T11:07:05.382Z,6.72
2023-01-07T11:09:36.629Z,3.70
2023-01-07T11:12:18.776Z,5.57
2023-01-07T11:14:49.569Z,4.03
2023-01-07T11:17:27.351Z,4.22
2023-01-07T11:19:56.486Z,4.10
2023-01-07T11:22:34.281Z,3.28
2023-01-07T11:25:03.248Z,3.92
2023-01-07T11:27:38.407Z,4.32
2023-01-07T11:30:10.998Z,4.43
2023-01-07T11:32:41.684Z,4.22
2023-01-07T11:35:22.839Z,3.03
2023-01-07T11:37:51.376Z,2.85
2023-01-07T11:40:27.656Z,3.45
2023-01-07T11:43:01.754Z,3.17
2023-01-07T11:45:33.217Z,4.63
2023-01-07T11:48:04.475Z,5.00
2023-01-07T11:50:37.166Z,3.63
2023-01-07T11:53:13.072Z,3.55
2023-01-07T11:55:44.409Z,4.38
2023-01-07T11:58:29.341Z,5.00
2023-01-07T12:01:26.693Z,4.32
2023-01-07T12:04:13.839Z,3.40
2023-01-07T12:06:43.960Z,4.00
2023-01-07T12:09:19.964Z,3.83
2023-01-07T12:11:48.007Z,5.63
2023-01-07T12:14:26.017Z,4.40
2023-01-07T12:16:55.263Z,3.72
2023-01-07T12:19:32.966Z,5.68
2023-01-07T12:22:09.924Z,2.85
2023-01-07T12:24:47.188Z,2.65
2023-01-07T12:27:24.078Z,2.97
2023-01-07T12:30:05.324Z,2.35
2023-01-07T12:32:47.275Z,3.13
2023-01-07T12:35:20.624Z,2.13
2023-01-07T12:37:53.112Z,2.97
2023-01-07T12:40:32.959Z,2.25
2023-01-07T12:43:05.925Z,2.15
2023-01-07T12:45:43.024Z,4.00
2023-01-07T12:48:16.972Z,4.97
2023-01-07T12:50:47.401Z,2.92
2023-01-07T12:53:19.420Z,4.57
2023-01-07T12:55:51.375Z,2.40
2023-01-07T12:58:27.604Z,3.35
2023-01-07T13:01:06.420Z,2.70
2023-01-07T13:03:44.364Z,1.95
2023-01-07T13:06:17.545Z,2.60
2023-01-07T13:08:52.073Z,2.50
2023-01-07T13:11:44.631Z,2.53
2023-01-07T13:14:19.834Z,2.38
2023-01-07T13:16:50.116Z,2.25
2023-01-07T13:19:18.640Z,2.25
2023-01-07T13:21:48.614Z,4.13
2023-01-07T13:24:56.001Z,4.53
2023-01-07T13:27:29.890Z,2.30
2023-01-07T13:30:11.713Z,2.40
2023-01-07T13:33:09.688Z,5.45
2023-01-07T13:35:56.407Z,9.60
2023-01-07T13:38:49.129Z,14.07
2023-01-07T13:41:29.472Z,4.40
2023-01-07T13:44:21.404Z,3.72
2023-01-07T13:46:49.842Z,3.75
2023-01-07T13:49:28.549Z,4.53
2023-01-07T13:51:57.270Z,2.83
2023-01-07T13:55:00.627Z,3.35
2023-01-07T13:57:43.892Z,3.38
2023-01-07T14:00:40.207Z,3.55
2023-01-07T14:03:37.008Z,3.85
2023-01-07T14:06:42.548Z,3.22
2023-01-07T14:09:23.710Z,7.13
2023-01-07T14:12:26.544Z,3.92
2023-01-07T14:15:25.382Z,3.63
2023-01-07T14:18:08.135Z,3.05
2023-01-07T14:20:45.587Z,2.83
2023-01-07T14:23:24.811Z,2.13
2023-01-07T14:29:27.041Z,3.15
2023-01-07T14:32:14.014Z,3.47
2023-01-07T14:34:42.417Z,2.78
2023-01-07T14:37:31.613Z,1.95
2023-01-07T14:39:59.959Z,3.90
2023-01-07T14:42:41.951Z,2.60
2023-01-07T14:45:47.734Z,2.60
2023-01-07T14:48:34.857Z,2.65
2023-01-07T14:51:28.705Z,2.78
2023-01-07T14:54:17.758Z,4.00
2023-01-07T14:56:55.132Z,2.03
2023-01-07T14:59:32.455Z,2.30
2023-01-07T15:02:28.005Z,2.97
2023-01-07T15:05:06.968Z,4.47
2023-01-07T15:07:37.661Z,3.40
2023-01-07T15:10:33.458Z,3.80
2023-01-07T15:13:19.245Z,5.00
2023-01-07T15:16:04.036Z,2.47
2023-01-07T15:18:34.523Z,3.95
2023-01-07T15:21:19.104Z,2.60
2023-01-07T15:23:52.125Z,3.03
2023-01-07T15:26:23.703Z,3.50
2023-01-07T15:28:57.893Z,2.80
2023-01-07T15:31:30.326Z,4.18
2023-01-07T15:34:02.411Z,6.10
2023-01-07T15:36:33.115Z,2.92
2023-01-07T15:39:02.222Z,4.15
2023-01-07T15:41:32.684Z,3.92
2023-01-07T15:44:03.345Z,3.10
2023-01-07T15:46:32.343Z,4.03
2023-01-07T15:49:22.410Z,2.95
2023-01-07T15:51:54.532Z,4.00
2023-01-07T15:54:30.503Z,7.43
2023-01-07T15:57:01.284Z,4.10
2023-01-07T15:59:31.514Z,4.45
2023-01-07T16:02:07.405Z,2.35
2023-01-07T16:04:37.233Z,4.25
2023-01-07T16:07:06.747Z,2.42
2023-01-07T16:09:35.189Z,2.10
2023-01-07T16:12:03.457Z,4.13
2023-01-07T16:14:37.175Z,3.85
2023-01-07T16:17:11.751Z,1.95
2023-01-07T16:19:39.895Z,4.15
2023-01-07T16:22:12.922Z,2.67
2023-01-07T16:24:47.723Z,2.75
2023-01-07T16:27:16.511Z,4.10
2023-01-07T16:29:51.192Z,3.22
2023-01-07T16:32:20.038Z,2.47
2023-01-07T16:34:57.220Z,4.05
2023-01-07T16:37:27.027Z,5.63
2023-01-07T16:39:55.396Z,4.32
2023-01-07T16:42:27.425Z,3.22
2023-01-07T16:45:00.749Z,2.10
2023-01-07T16:47:30.463Z,2.05
2023-01-07T16:50:00.327Z,3.38
2023-01-07T16:52:33.969Z,2.70
2023-01-07T16:55:02.274Z,4.10
2023-01-07T16:57:34.218Z,4.20
2023-01-07T17:00:04.370Z,3.55
2023-01-07T17:02:35.250Z,3.83
2023-01-07T17:05:18.575Z,3.90
2023-01-07T17:07:49.961Z,2.40
2023-01-07T17:10:22.271Z,2.50
2023-01-07T17:15:35.330Z,1.83
2023-01-07T17:18:27.502Z,2.88
2023-01-07T17:20:57.621Z,2.75
2023-01-07T17:23:45.561Z,3.90
2023-01-07T17:26:18.860Z,4.20
2023-01-07T17:28:48.571Z,3.63
2023-01-07T17:31:16.763Z,3.72
2023-01-07T17:33:44.968Z,2.75
2023-01-07T17:36:16.366Z,2.78
2023-01-07T17:38:45.893Z,3.53
2023-01-07T17:41:35.313Z,3.38
2023-01-07T17:44:02.823Z,3.15
2023-01-07T17:46:31.083Z,2.55
2023-01-07T17:48:59.922Z,3.83
2023-01-07T17:51:28.548Z,3.35
2023-01-07T17:53:59.406Z,2.13
2023-01-07T17:56:27.385Z,2.88
2023-01-07T17:58:56.274Z,3.58
2023-01-07T18:01:26.244Z,2.88
2023-01-07T18:03:55.661Z,3.88
2023-01-07T18:06:25.777Z,3.50
2023-01-07T18:08:55.204Z,3.38
2023-01-07T18:11:43.596Z,3.03
2023-01-07T18:14:13.911Z,5.00
2023-01-07T18:16:43.748Z,3.70
2023-01-07T18:19:13.660Z,4.05
2023-01-07T18:21:41.898Z,5.25
2023-01-07T18:24:12.194Z,4.53
2023-01-07T18:26:42.031Z,6.07
2023-01-07T18:29:14.038Z,4.50
2023-01-07T18:31:43.736Z,4.05
2023-01-07T18:34:16.049Z,4.18
2023-01-07T18:36:44.435Z,6.75
2023-01-07T18:39:19.146Z,4.10
2023-01-07T18:41:50.219Z,3.22
2023-01-07T18:44:18.794Z,4.93
2023-01-07T18:46:47.134Z,4.25
2023-01-07T18:49:15.964Z,3.92
2023-01-07T18:51:44.070Z,5.72
2023-01-07T18:54:12.322Z,5.50
2023-01-07T18:56:40.387Z,3.47
2023-01-07T18:59:09.913Z,4.05
2023-01-07T19:01:38.406Z,4.78
2023-01-07T19:04:06.876Z,3.45
2023-01-07T19:06:37.263Z,6.40
2023-01-07T19:09:05.393Z,4.97
2023-01-07T19:11:33.512Z,4.25
2023-01-07T19:14:01.907Z,4.95
2023-01-07T19:16:31.956Z,6.68
2023-01-07T19:19:00.798Z,4.30
2023-01-07T19:21:31.617Z,6.03
2023-01-07T19:24:03.635Z,5.43
2023-01-07T19:26:33.727Z,4.53
2023-01-07T19:29:02.045Z,5.90
2023-01-07T19:31:34.242Z,4.57
2023-01-07T19:34:03.217Z,11.05
2023-01-07T19:36:31.450Z,3.95
2023-01-07T19:38:59.421Z,3.50
2023-01-07T19:41:28.446Z,3.83
2023-01-07T19:43:59.687Z,3.33
2023-01-07T19:46:28.834Z,5.53
2023-01-07T19:48:58.725Z,4.00
2023-01-07T19:51:28.968Z,4.15
2023-01-07T19:53:57.076Z,3.88
2023-01-07T19:56:25.272Z,3.85
2023-01-07T19:58:54.987Z,4.57
2023-01-07T20:01:26.676Z,4.20
2023-01-07T20:03:56.147Z,3.40
2023-01-07T20:06:28.101Z,5.05
2023-01-07T20:08:58.516Z,3.92
2023-01-07T20:11:26.794Z,3.53
2023-01-07T20:13:54.976Z,4.13
2023-01-07T20:16:25.012Z,7.00
2023-01-07T20:18:54.910Z,3.25
2023-01-07T20:21:27.726Z,4.38
2023-01-07T20:23:56.451Z,5.28
2023-01-07T20:26:25.956Z,4.03
2023-01-07T20:28:55.951Z,3.72
2023-01-07T20:31:26.423Z,4.90
2023-01-07T20:33:56.236Z,3.90
2023-01-07T20:36:25.826Z,4.50
2023-01-07T20:38:55.684Z,4.78
2023-01-07T20:41:25.589Z,3.40
2023-01-07T20:43:55.438Z,3.65
2023-01-07T20:46:24.180Z,3.05
2023-01-07T20:48:52.305Z,3.97
2023-01-07T20:51:20.582Z,3.70
2023-01-07T20:53:50.592Z,4.05
2023-01-07T20:56:21.918Z,4.65
2023-01-07T20:58:50.324Z,6.00
2023-01-07T21:01:20.279Z,4.65
2023-01-07T21:03:48.623Z,5.03
2023-01-07T21:06:18.745Z,4.05
2023-01-07T21:08:47.880Z,5.57
2023-01-07T21:11:18.039Z,5.28
2023-01-07T21:13:48.248Z,4.97
2023-01-07T21:16:16.918Z,5.05
2023-01-07T21:18:45.269Z,8.40
2023-01-07T21:21:14.734Z,5.45
2023-01-07T21:23:42.947Z,4.47
2023-01-07T21:26:12.852Z,6.00
2023-01-07T21:28:41.785Z,4.68
2023-01-07T21:31:12.803Z,5.55
2023-01-07T21:33:41.467Z,4.25
2023-01-07T21:36:10.473Z,4.55
2023-01-07T21:38:38.838Z,3.53
2023-01-07T21:41:08.754Z,4.47
2023-01-07T21:43:36.973Z,5.40
2023-01-07T21:46:06.422Z,4.55
2023-01-07T21:48:37.392Z,5.50
2023-01-07T21:51:07.688Z,4.35
2023-01-07T21:53:36.477Z,4.07
2023-01-07T21:56:06.429Z,6.32
2023-01-07T21:58:35.518Z,5.15
2023-01-07T22:01:04.288Z,6.97
2023-01-07T22:03:32.428Z,4.68
2023-01-07T22:06:03.531Z,5.93
2023-01-07T22:08:31.731Z,5.43
2023-01-07T22:10:59.885Z,6.55
2023-01-07T22:13:28.235Z,4.55
2023-01-07T22:15:56.903Z,5.90
2023-01-07T22:18:25.065Z,5.80
2023-01-07T22:20:54.704Z,4.82
2023-01-07T22:23:26.849Z,6.35
2023-01-07T22:25:54.992Z,4.78
2023-01-07T22:28:24.269Z,8.60
2023-01-07T22:30:54.557Z,4.72
2023-01-07T22:33:23.308Z,6.07
2023-01-07T22:35:51.644Z,6.72
2023-01-07T22:38:20.674Z,5.13
2023-01-07T22:40:50.267Z,4.63
2023-01-07T22:43:20.911Z,5.07
2023-01-07T22:45:52.334Z,6.43
2023-01-07T22:48:23.910Z,5.43
2023-01-07T22:50:53.058Z,7.07
2023-01-07T22:53:21.196Z,5.70
2023-01-07T22:55:50.844Z,5.43
2023-01-07T22:58:19.243Z,5.38
2023-01-07T23:00:53.688Z,4.60
2023-01-07T23:03:23.801Z,5.30
2023-01-07T23:05:52.197Z,7.40
2023-01-07T23:08:20.523Z,6.97
2023-01-07T23:10:50.134Z,5.00
2023-01-07T23:13:18.410Z,4.88
2023-01-07T23:15:46.414Z,8.95
2023-01-07T23:18:14.688Z,6.07
2023-01-07T23:20:44.140Z,5.43
2023-01-07T23:23:13.786Z,6.93
2023-01-07T23:25:46.175Z,4.88
2023-01-07T23:30:44.150Z,5.82
2023-01-07T23:33:12.560Z,5.28
2023-01-07T23:35:40.844Z,4.97
2023-01-07T23:38:09.179Z,4.50
2023-01-07T23:40:37.450Z,4.53
2023-01-07T23:43:05.468Z,4.47
2023-01-07T23:45:34.926Z,4.13
2023-01-07T23:48:02.962Z,4.18
2023-01-07T23:50:31.522Z,5.55
2023-01-07T23:52:59.587Z,5.38
2023-01-07T23:55:29.070Z,9.73
2023-01-07T23:57:57.099Z,5.20
